Etusivu
METAR-TAF:

METAR-TAF

Lentoasemat :

London City Airport

Lontoo, Englanti

Leveyspiiri: 51-30N, Pituuspiiri: 000-03E, korkeus merenpinnasta: 5 m

Tämänhetkinen sää

Tämä raportti tehtiin 35 minuuttia sitten, kello 12.50 UTC
Tuuli 11 kn lännestä/luoteesta, vaihdellen lännen ja pohjoisen välillä
Lämpötila 17°C
Kosteus 52%
Ilmanpaine 1019 hPa
Näkyvyys 10 km tai enemmän

METAR: EGLC 101250Z AUTO 30011KT 280V350 9999 NCD 17/07 Q1019

Aika: 14:25 (13:25 UTC)

Sääennuste

Tämä raportti tehtiin 5 tuntia ja 27 minuuttia sitten, kello 07.58 UTC
Ennuste voimassa 10. päivästä klo 09 UTC - 10. päivään klo 18 UTC
Tuuli 9 kn luoteesta
Näkyvyys 10 km tai enemmän
Muutamia pilviä 3500 ft:n korkeudessa
Todennäköisyys 30% :
Ajoittain
10. päivästä klo 09 UTC - 10. päivään klo 10 UTC
Hajonneita pilviä 1200 ft:n korkeudessa

TAF: EGLC 100758Z 1009/1018 32009KT 9999 FEW035 PROB30 TEMPO 1009/1010 BKN012

Säähavainnot ja -ennusteet yli 4000 lentoasemalta (METAR- ja TAF-raportit).

Käytössä olevat sääasemat on merkitty karttaan keltaisilla ja punaisilla pisteillä.

Aseta hiiri pisteen päälle nähdäksesi sääaseman nimen.

Klikkaa sitten nähdäksesi säähavainnot ja -ennusteet.

Kartan vaihtaminen: klikkaa mustalla rastilla varustettuja vihreitä pisteitä, niin voit zoomata sisään; viivalla varustettua vihreää pistettä, niin voit zoomata ulos tai vihreitä nuolia, niin pääset viereisille kartoille.


METAR-TAF: